Time;durP1;ratioP1;P1;durP2;ratioP2;P2;SDS_P1;SDS_P2;PMS_P1;PMS_P2;Temp;Humidity;BMP_temperature;BMP_pressure;BME280_temperature;BME280_humidity;BME280_pressure;Samples;Min_cycle;Max_cycle;Signal;HPM_P1;HPM_P2
2022/03/30 00:01:32;;;;;;;0.40;0.20;;;10.90;74.50;;;;;;5070755;28;20915;-84
2022/03/30 00:04:00;;;;;;;0.53;0.53;;;10.80;75.70;;;;;;5068532;28;20490;-84
2022/03/30 00:06:28;;;;;;;0.30;0.20;;;10.80;75.70;;;;;;5057216;28;20549;-84
2022/03/30 00:08:55;;;;;;;0.43;0.43;;;10.70;77.10;;;;;;5064451;28;20460;-84
2022/03/30 00:11:22;;;;;;;0.30;0.20;;;10.60;77.10;;;;;;5057186;28;20440;-86
2022/03/30 00:13:49;;;;;;;0.70;0.70;;;10.40;76.70;;;;;;5064862;28;20445;-84
2022/03/30 00:16:16;;;;;;;1.17;0.27;;;10.40;76.80;;;;;;5066286;28;20519;-83
2022/03/30 00:18:43;;;;;;;0.30;0.20;;;10.30;76.80;;;;;;5060250;28;20463;-84
2022/03/30 00:21:12;;;;;;;1.70;0.93;;;10.40;77.00;;;;;;5065173;28;20456;-84
2022/03/30 00:23:39;;;;;;;0.60;0.40;;;10.30;76.50;;;;;;5059546;28;20529;-84
2022/03/30 00:26:06;;;;;;;0.40;0.23;;;10.20;76.70;;;;;;5062565;28;20578;-83
2022/03/30 00:28:33;;;;;;;0.30;0.20;;;10.20;77.40;;;;;;5057042;28;20790;-85
2022/03/30 00:31:00;;;;;;;1.60;0.60;;;10.30;77.80;;;;;;5067919;28;20435;-84
2022/03/30 00:33:28;;;;;;;0.40;0.20;;;10.20;79.00;;;;;;5059327;28;20464;-85
2022/03/30 00:35:55;;;;;;;0.90;0.70;;;10.10;79.70;;;;;;5054819;28;20460;-82
2022/03/30 00:38:23;;;;;;;0.40;0.30;;;10.00;80.20;;;;;;5066425;28;20447;-84
2022/03/30 00:40:50;;;;;;;0.40;0.27;;;9.90;81.50;;;;;;5064806;28;20503;-83
2022/03/30 00:43:17;;;;;;;0.73;0.60;;;9.80;81.70;;;;;;5058874;28;20455;-83
2022/03/30 00:45:44;;;;;;;0.40;0.40;;;9.70;81.70;;;;;;5060549;28;20470;-86
2022/03/30 00:48:11;;;;;;;0.30;0.20;;;9.60;82.30;;;;;;5068789;28;20512;-83
2022/03/30 00:50:39;;;;;;;0.60;0.60;;;9.50;83.00;;;;;;5070199;28;20500;-82
2022/03/30 00:53:06;;;;;;;0.30;0.20;;;9.40;83.60;;;;;;5066337;28;20460;-84
2022/03/30 00:55:35;;;;;;;0.40;0.30;;;9.30;83.80;;;;;;5070173;28;20436;-84
2022/03/30 00:58:02;;;;;;;0.50;0.33;;;9.30;84.00;;;;;;5060403;28;20495;-84
2022/03/30 01:00:29;;;;;;;0.30;0.20;;;9.20;83.90;;;;;;5059713;28;20452;-83
2022/03/30 01:02:56;;;;;;;1.23;1.13;;;9.20;83.80;;;;;;5065738;28;20624;-86
2022/03/30 01:05:24;;;;;;;1.37;0.67;;;9.30;84.10;;;;;;5064860;28;20522;-84
2022/03/30 01:07:51;;;;;;;0.50;0.40;;;9.20;84.10;;;;;;5069762;28;20483;-83
2022/03/30 01:10:19;;;;;;;0.30;0.20;;;9.10;85.00;;;;;;5059948;28;20457;-84
2022/03/30 01:12:52;;;;;;;0.87;0.87;;;9.00;85.50;;;;;;5064721;28;20489;-85
2022/03/30 01:15:19;;;;;;;0.40;0.23;;;8.90;85.70;;;;;;5067108;28;20443;-83
2022/03/30 01:17:46;;;;;;;0.40;0.20;;;8.80;86.40;;;;;;5069190;28;21010;-83
2022/03/30 01:20:17;;;;;;;0.30;0.20;;;8.70;86.80;;;;;;5054249;28;20485;-85
2022/03/30 01:22:46;;;;;;;0.30;0.20;;;8.60;87.50;;;;;;5060210;28;20444;-87
2022/03/30 01:25:13;;;;;;;0.40;0.30;;;8.50;87.50;;;;;;5066968;28;21135;-87
2022/03/30 01:27:40;;;;;;;0.70;0.70;;;8.50;87.70;;;;;;5055475;28;20974;-83
2022/03/30 01:33:02;;;;;;;0.67;0.67;;;8.50;88.30;;;;;;5061857;28;20468;-84
2022/03/30 01:35:29;;;;;;;0.30;0.20;;;8.40;89.20;;;;;;5060364;28;20452;-84
2022/03/30 01:37:57;;;;;;;0.63;0.63;;;8.20;90.20;;;;;;5070050;28;20493;-84
2022/03/30 01:40:25;;;;;;;0.50;0.50;;;8.20;90.40;;;;;;5061474;28;20524;-84
2022/03/30 01:42:52;;;;;;;0.40;0.20;;;8.30;90.80;;;;;;5061447;28;20517;-84
2022/03/30 01:45:19;;;;;;;0.40;0.30;;;8.20;90.90;;;;;;5065708;28;20812;-83
2022/03/30 01:47:51;;;;;;;0.40;0.40;;;8.10;90.90;;;;;;5065573;28;20482;-84
2022/03/30 01:50:18;;;;;;;1.80;0.87;;;8.00;91.30;;;;;;5063284;28;20451;-86
2022/03/30 01:52:46;;;;;;;0.30;0.20;;;7.90;91.70;;;;;;5070791;28;20514;-83
2022/03/30 01:55:14;;;;;;;0.30;0.20;;;7.90;92.00;;;;;;5064388;28;20468;-84
2022/03/30 01:57:42;;;;;;;0.60;0.60;;;7.80;92.10;;;;;;5058780;28;20513;-82
2022/03/30 02:00:11;;;;;;;0.30;0.20;;;7.80;92.10;;;;;;5063804;28;20492;-82
2022/03/30 02:02:38;;;;;;;2.20;0.83;;;7.80;92.40;;;;;;5071342;28;20424;-83
2022/03/30 02:05:08;;;;;;;1.23;1.13;;;7.90;92.40;;;;;;5060197;28;20886;-81
2022/03/30 02:07:35;;;;;;;0.30;0.27;;;7.80;92.40;;;;;;5072393;28;20503;-85
2022/03/30 02:10:04;;;;;;;0.80;0.40;;;7.70;92.50;;;;;;5067978;28;20435;-83
2022/03/30 02:12:32;;;;;;;0.30;0.20;;;7.70;92.90;;;;;;5059740;28;20450;-83
2022/03/30 02:14:59;;;;;;;0.30;0.17;;;7.70;93.20;;;;;;5069958;28;20987;-83
2022/03/30 02:17:27;;;;;;;0.60;0.60;;;7.70;93.30;;;;;;5065753;28;20923;-84
2022/03/30 02:19:55;;;;;;;0.40;0.23;;;7.60;93.50;;;;;;5072616;28;20517;-83
2022/03/30 02:22:23;;;;;;;0.30;0.20;;;7.60;93.70;;;;;;5065190;28;20459;-83
2022/03/30 02:24:50;;;;;;;0.40;0.30;;;7.60;93.90;;;;;;5063363;28;20573;-85
2022/03/30 02:27:19;;;;;;;0.30;0.20;;;7.60;94.00;;;;;;5061303;28;20483;-84
2022/03/30 02:29:47;;;;;;;0.50;0.23;;;7.60;94.10;;;;;;5059031;28;20835;-83
2022/03/30 02:32:14;;;;;;;1.43;0.40;;;7.80;93.80;;;;;;5069647;28;20445;-83
2022/03/30 02:34:41;;;;;;;0.30;0.20;;;7.80;93.70;;;;;;5060217;28;20922;-84
2022/03/30 02:37:09;;;;;;;0.30;0.20;;;7.70;93.60;;;;;;5072531;28;20438;-84
2022/03/30 02:39:36;;;;;;;0.30;0.20;;;7.60;93.90;;;;;;5072172;28;20438;-83
2022/03/30 02:42:03;;;;;;;0.30;0.10;;;7.70;93.80;;;;;;5067140;28;20457;-84
2022/03/30 02:44:30;;;;;;;0.30;0.20;;;7.60;93.70;;;;;;5072284;28;21005;-83
2022/03/30 02:47:00;;;;;;;0.30;0.20;;;7.50;94.20;;;;;;5068533;28;21006;-83
2022/03/30 02:49:27;;;;;;;0.30;0.17;;;7.40;94.30;;;;;;5067251;28;20554;-84
2022/03/30 02:51:55;;;;;;;0.40;0.40;;;7.50;94.00;;;;;;5072207;28;20986;-86
2022/03/30 02:54:24;;;;;;;0.40;0.40;;;7.60;93.90;;;;;;5066308;28;20819;-83
2022/03/30 02:56:51;;;;;;;0.30;0.20;;;7.70;93.40;;;;;;5076380;28;20813;-83
2022/03/30 02:59:18;;;;;;;1.67;1.03;;;7.70;93.10;;;;;;5065838;28;20438;-83
2022/03/30 03:01:45;;;;;;;0.30;0.20;;;7.70;93.30;;;;;;5063103;28;20476;-84
2022/03/30 03:04:13;;;;;;;0.30;0.20;;;7.70;93.10;;;;;;5058246;28;20454;-84
2022/03/30 03:06:40;;;;;;;0.40;0.30;;;7.70;92.60;;;;;;5064735;28;20465;-83
2022/03/30 03:09:08;;;;;;;0.80;0.80;;;7.70;91.80;;;;;;5064541;28;20459;-84
2022/03/30 03:11:35;;;;;;;2.50;1.33;;;7.70;91.80;;;;;;5060973;28;20444;-84
2022/03/30 03:14:05;;;;;;;0.30;0.20;;;7.70;92.00;;;;;;5058141;28;20753;-85
2022/03/30 03:16:33;;;;;;;0.30;0.20;;;7.60;92.00;;;;;;5059504;28;20469;-84
2022/03/30 03:19:00;;;;;;;0.30;0.20;;;7.70;92.20;;;;;;5058458;28;20490;-84
2022/03/30 03:21:28;;;;;;;0.30;0.20;;;7.80;92.30;;;;;;5066532;28;20463;-83
2022/03/30 03:23:55;;;;;;;1.43;1.23;;;7.60;92.80;;;;;;5063068;28;20540;-83
2022/03/30 03:26:22;;;;;;;1.33;1.33;;;7.60;92.80;;;;;;5052668;28;20448;-84
2022/03/30 03:28:50;;;;;;;4.33;0.60;;;7.60;92.70;;;;;;5054505;28;20501;-84
2022/03/30 03:31:16;;;;;;;0.67;0.67;;;7.50;93.00;;;;;;5056372;28;20461;-84
2022/03/30 03:33:44;;;;;;;1.40;0.63;;;7.60;93.10;;;;;;5060693;28;20471;-84
2022/03/30 03:36:11;;;;;;;0.30;0.20;;;7.50;93.70;;;;;;5050415;28;20460;-84
2022/03/30 03:38:39;;;;;;;0.83;0.63;;;7.40;93.40;;;;;;5060407;28;20508;-84
2022/03/30 03:41:06;;;;;;;0.30;0.20;;;7.40;93.30;;;;;;5066745;28;21209;-84
2022/03/30 03:43:34;;;;;;;0.40;0.33;;;7.40;92.90;;;;;;5057521;28;20453;-83
2022/03/30 03:46:01;;;;;;;0.40;0.27;;;7.40;92.70;;;;;;5051615;28;20935;-84
2022/03/30 03:48:28;;;;;;;2.23;1.60;;;7.40;92.70;;;;;;5064868;28;20478;-85
2022/03/30 03:50:55;;;;;;;0.53;0.53;;;7.50;92.50;;;;;;5065058;28;20536;-84
2022/03/30 03:53:22;;;;;;;0.30;0.20;;;7.50;92.30;;;;;;5058504;28;20498;-84
2022/03/30 03:55:51;;;;;;;0.30;0.20;;;7.50;92.40;;;;;;5047887;28;21075;-83
2022/03/30 03:58:21;;;;;;;0.33;0.23;;;7.50;92.30;;;;;;5060775;28;20462;-84
2022/03/30 04:00:48;;;;;;;0.83;0.60;;;7.50;92.40;;;;;;5048485;28;20460;-81
2022/03/30 04:03:15;;;;;;;1.17;1.03;;;7.40;92.50;;;;;;5047483;28;21183;-82
2022/03/30 04:05:43;;;;;;;0.37;0.27;;;7.40;92.70;;;;;;5052831;28;20508;-81
2022/03/30 04:08:10;;;;;;;0.93;0.30;;;7.30;93.20;;;;;;5063167;28;20590;-82
2022/03/30 04:10:37;;;;;;;0.30;0.20;;;7.30;93.60;;;;;;5059472;28;20946;-82
2022/03/30 04:13:06;;;;;;;0.30;0.10;;;7.30;93.80;;;;;;5062479;28;20545;-81
2022/03/30 04:15:33;;;;;;;1.50;0.40;;;7.20;94.20;;;;;;5068426;28;20449;-83
2022/03/30 04:18:01;;;;;;;0.33;0.17;;;7.20;94.40;;;;;;5067520;28;20549;-84
2022/03/30 04:20:28;;;;;;;0.30;0.10;;;7.20;94.80;;;;;;5060899;28;20467;-83
2022/03/30 04:22:55;;;;;;;0.30;0.10;;;7.10;94.70;;;;;;5069064;28;20531;-83
2022/03/30 04:25:23;;;;;;;0.60;0.60;;;7.00;94.80;;;;;;5062686;28;20505;-83
2022/03/30 04:27:52;;;;;;;0.53;0.53;;;6.90;95.30;;;;;;5058441;28;20601;-82
2022/03/30 04:30:22;;;;;;;0.30;0.10;;;7.00;95.30;;;;;;5063949;28;20444;-84
2022/03/30 04:32:50;;;;;;;0.30;0.20;;;7.10;95.40;;;;;;5061412;28;20911;-83
2022/03/30 04:35:24;;;;;;;0.80;0.80;;;7.10;95.20;;;;;;5057097;28;20455;-83
2022/03/30 04:37:52;;;;;;;0.83;0.83;;;7.00;95.40;;;;;;5068352;28;20465;-83
2022/03/30 04:40:19;;;;;;;0.30;0.20;;;7.00;95.60;;;;;;5060079;28;20556;-83
2022/03/30 04:42:46;;;;;;;0.30;0.17;;;6.90;96.00;;;;;;5061847;28;20469;-85
2022/03/30 04:45:13;;;;;;;0.60;0.60;;;6.90;96.20;;;;;;5057621;28;20469;-83
2022/03/30 04:47:41;;;;;;;0.40;0.30;;;6.90;96.20;;;;;;5049761;28;20473;-82
2022/03/30 04:50:09;;;;;;;0.40;0.40;;;6.90;96.50;;;;;;5057489;28;20449;-84
2022/03/30 04:52:36;;;;;;;0.33;0.17;;;6.90;96.90;;;;;;5060370;28;20456;-82
2022/03/30 04:55:04;;;;;;;0.40;0.30;;;6.90;96.70;;;;;;5069362;28;20445;-84
2022/03/30 04:57:31;;;;;;;0.30;0.10;;;6.80;96.80;;;;;;5063006;28;20502;-82
2022/03/30 04:59:59;;;;;;;1.90;0.83;;;6.70;97.10;;;;;;5058507;28;20908;-84
2022/03/30 05:02:26;;;;;;;0.30;0.30;;;6.70;97.10;;;;;;5055622;28;20512;-83
2022/03/30 05:04:54;;;;;;;0.30;0.20;;;6.70;97.30;;;;;;5061251;28;20592;-81
2022/03/30 05:07:21;;;;;;;1.80;0.60;;;6.90;97.30;;;;;;5067618;28;20826;-84
2022/03/30 05:09:48;;;;;;;2.50;1.00;;;6.90;96.60;;;;;;5057391;28;20461;-82
2022/03/30 05:12:15;;;;;;;0.30;0.20;;;7.00;96.50;;;;;;5049426;28;20855;-84
2022/03/30 05:14:42;;;;;;;0.50;0.43;;;7.00;96.40;;;;;;5057134;28;20472;-82
2022/03/30 05:17:09;;;;;;;1.23;1.23;;;7.10;96.20;;;;;;5056009;28;20450;-85
2022/03/30 05:19:37;;;;;;;1.57;1.53;;;7.00;96.50;;;;;;5058628;28;20539;-83
2022/03/30 05:22:06;;;;;;;0.73;0.73;;;7.00;96.10;;;;;;5065048;28;20534;-85
2022/03/30 05:24:33;;;;;;;0.30;0.10;;;7.00;95.80;;;;;;5054359;28;20510;-85
2022/03/30 05:27:00;;;;;;;0.53;0.53;;;7.10;95.90;;;;;;5057722;28;20453;-82
2022/03/30 05:29:27;;;;;;;0.50;0.40;;;7.20;95.30;;;;;;5064406;28;20479;-83
2022/03/30 05:31:54;;;;;;;0.30;0.20;;;7.20;95.40;;;;;;5059823;28;20463;-82
2022/03/30 05:34:21;;;;;;;0.37;0.30;;;7.30;95.10;;;;;;5062472;28;20454;-82
2022/03/30 05:36:48;;;;;;;0.30;0.20;;;7.30;95.30;;;;;;5055481;28;20458;-83
2022/03/30 05:39:16;;;;;;;1.70;1.13;;;7.40;95.20;;;;;;5052541;28;20469;-85
2022/03/30 05:41:43;;;;;;;0.97;0.83;;;7.40;95.30;;;;;;5064486;28;20814;-82
2022/03/30 05:44:10;;;;;;;0.30;0.20;;;7.40;95.10;;;;;;5065937;28;20487;-82
2022/03/30 05:46:37;;;;;;;1.47;1.37;;;7.50;94.90;;;;;;5065205;28;20440;-82
2022/03/30 05:49:04;;;;;;;0.30;0.20;;;7.60;94.80;;;;;;5070758;28;20885;-83
2022/03/30 05:51:32;;;;;;;0.30;0.10;;;7.70;94.80;;;;;;5069884;28;20519;-84
2022/03/30 05:54:00;;;;;;;0.50;0.50;;;7.80;94.70;;;;;;5070308;28;20453;-83
2022/03/30 05:59:09;;;;;;;0.30;0.20;;;7.90;94.40;;;;;;5067709;28;20549;-85
2022/03/30 06:01:36;;;;;;;0.30;0.20;;;8.00;94.30;;;;;;5069493;28;20505;-83
2022/03/30 06:04:03;;;;;;;0.40;0.30;;;8.20;94.10;;;;;;5068488;28;20541;-85
2022/03/30 06:06:30;;;;;;;0.40;0.30;;;8.30;93.70;;;;;;5071743;28;20448;-82
2022/03/30 06:08:57;;;;;;;0.30;0.20;;;8.30;93.60;;;;;;5076615;28;21247;-86
2022/03/30 06:11:24;;;;;;;0.47;0.43;;;8.50;93.20;;;;;;5070236;28;20853;-87
2022/03/30 06:13:52;;;;;;;3.37;0.63;;;8.50;92.90;;;;;;5067391;28;21015;-85
2022/03/30 06:16:19;;;;;;;1.07;0.50;;;8.60;92.80;;;;;;5066836;28;20463;-85
2022/03/30 06:18:46;;;;;;;0.30;0.10;;;8.80;92.50;;;;;;5072907;28;20687;-84
2022/03/30 06:21:14;;;;;;;0.50;0.50;;;9.00;92.60;;;;;;5060383;28;20459;-85
2022/03/30 06:23:41;;;;;;;0.40;0.37;;;9.20;92.40;;;;;;5063532;28;20975;-85
2022/03/30 06:26:08;;;;;;;0.30;0.20;;;9.20;92.20;;;;;;5069658;28;20475;-85
2022/03/30 06:28:35;;;;;;;2.00;0.93;;;9.10;91.50;;;;;;5065069;28;20572;-89
2022/03/30 06:31:04;;;;;;;0.40;0.20;;;9.20;91.70;;;;;;5066819;28;20442;-85
2022/03/30 06:33:31;;;;;;;0.30;0.20;;;9.30;91.50;;;;;;5038406;28;20575;-87
2022/03/30 06:35:58;;;;;;;0.30;0.20;;;9.40;91.40;;;;;;5053094;28;20907;-83
2022/03/30 06:38:25;;;;;;;0.73;0.67;;;9.40;91.00;;;;;;5070987;28;20454;-83
2022/03/30 06:40:53;;;;;;;0.60;0.60;;;9.30;91.50;;;;;;5063927;28;20473;-85
2022/03/30 06:43:19;;;;;;;0.50;0.43;;;9.30;91.40;;;;;;5066036;28;20506;-84
2022/03/30 06:45:47;;;;;;;0.40;0.30;;;9.20;91.40;;;;;;5067875;28;20996;-83
2022/03/30 06:48:15;;;;;;;0.40;0.23;;;9.20;91.70;;;;;;5061924;28;21041;-84
2022/03/30 06:50:42;;;;;;;0.40;0.30;;;9.20;91.60;;;;;;5058444;28;20479;-83
2022/03/30 06:53:10;;;;;;;0.90;0.90;;;9.40;91.50;;;;;;5067437;28;20455;-82
2022/03/30 06:55:38;;;;;;;0.30;0.20;;;9.60;91.40;;;;;;5055464;28;20531;-82
2022/03/30 06:58:05;;;;;;;1.43;1.33;;;9.80;90.70;;;;;;5062222;28;21203;-85
2022/03/30 07:00:33;;;;;;;0.30;0.20;;;9.90;90.80;;;;;;5060860;28;20457;-83
2022/03/30 07:03:00;;;;;;;0.40;0.30;;;9.90;90.20;;;;;;5052881;28;20502;-84
2022/03/30 07:05:29;;;;;;;0.30;0.23;;;9.70;91.00;;;;;;5052845;28;20778;-83
2022/03/30 07:10:40;;;;;;;0.50;0.50;;;10.10;90.00;;;;;;5051706;28;20511;-82
2022/03/30 07:13:07;;;;;;;0.50;0.47;;;10.20;90.00;;;;;;5044435;28;20519;-82
2022/03/30 07:15:34;;;;;;;0.30;0.20;;;10.60;89.50;;;;;;5032528;28;20481;-82
2022/03/30 07:18:03;;;;;;;0.30;0.20;;;10.80;88.80;;;;;;5040410;28;20876;-82
2022/03/30 07:20:31;;;;;;;0.40;0.30;;;10.80;88.60;;;;;;5037501;28;20839;-83
2022/03/30 07:22:59;;;;;;;0.47;0.47;;;10.90;88.70;;;;;;5051350;28;21133;-83
2022/03/30 07:25:27;;;;;;;0.40;0.20;;;11.10;88.20;;;;;;5059789;28;20523;-82
2022/03/30 07:27:56;;;;;;;0.40;0.30;;;11.20;86.60;;;;;;5049490;28;20461;-83
2022/03/30 07:30:24;;;;;;;0.60;0.60;;;11.20;86.00;;;;;;5058901;28;20440;-82
2022/03/30 07:32:53;;;;;;;0.50;0.30;;;11.10;86.60;;;;;;5071950;28;20449;-81
2022/03/30 07:35:23;;;;;;;0.30;0.20;;;11.20;86.70;;;;;;5066817;28;20840;-85
2022/03/30 07:37:51;;;;;;;1.60;0.50;;;11.30;85.90;;;;;;5050817;28;20982;-83
2022/03/30 07:40:21;;;;;;;0.40;0.30;;;11.40;85.80;;;;;;5043740;28;20458;-84
2022/03/30 07:42:50;;;;;;;1.93;1.83;;;11.40;85.30;;;;;;5051875;28;20449;-88
2022/03/30 07:45:18;;;;;;;0.60;0.60;;;11.60;85.00;;;;;;5052092;28;20923;-84
2022/03/30 07:47:46;;;;;;;0.40;0.33;;;11.30;84.90;;;;;;5050399;28;20528;-84
2022/03/30 07:50:14;;;;;;;0.30;0.20;;;11.60;85.60;;;;;;5038695;28;20511;-82
2022/03/30 07:52:41;;;;;;;3.13;0.50;;;11.80;84.50;;;;;;5050368;28;20443;-83
2022/03/30 07:55:12;;;;;;;0.30;0.30;;;11.90;83.10;;;;;;5051978;28;20527;-83
2022/03/30 07:57:42;;;;;;;0.40;0.30;;;11.80;82.40;;;;;;5051183;28;20483;-84
2022/03/30 08:00:11;;;;;;;0.40;0.40;;;11.60;82.20;;;;;;5050523;28;20949;-83
2022/03/30 08:02:38;;;;;;;0.40;0.33;;;11.40;84.80;;;;;;5051758;28;20448;-83
2022/03/30 08:05:08;;;;;;;0.40;0.30;;;11.40;85.50;;;;;;5050626;28;21004;-83
2022/03/30 08:07:35;;;;;;;2.60;0.73;;;11.70;85.00;;;;;;5051280;28;20448;-86
2022/03/30 08:10:02;;;;;;;2.20;0.97;;;11.50;85.00;;;;;;5051097;28;20543;-85
2022/03/30 08:12:31;;;;;;;0.50;0.50;;;11.40;86.00;;;;;;5040049;28;21015;-83
2022/03/30 08:14:58;;;;;;;0.97;0.30;;;11.40;85.80;;;;;;5048452;28;20456;-83
2022/03/30 08:17:25;;;;;;;0.40;0.30;;;11.50;86.60;;;;;;5050329;28;20542;-83
2022/03/30 08:19:52;;;;;;;1.63;0.33;;;11.40;86.80;;;;;;5051498;28;20558;-83
2022/03/30 08:22:28;;;;;;;1.10;0.70;;;11.40;86.00;;;;;;5043972;28;20507;-83
2022/03/30 08:24:56;;;;;;;0.30;0.20;;;11.90;86.70;;;;;;5030807;28;20853;-83
2022/03/30 08:27:27;;;;;;;1.60;0.40;;;12.00;84.90;;;;;;5045327;28;20448;-84
2022/03/30 08:29:55;;;;;;;0.77;0.77;;;12.00;84.60;;;;;;5039693;28;21038;-83
2022/03/30 08:32:23;;;;;;;0.70;0.67;;;12.10;83.10;;;;;;5049845;28;20935;-85
2022/03/30 08:34:52;;;;;;;0.50;0.50;;;12.00;83.20;;;;;;5046115;28;20472;-84
2022/03/30 08:37:19;;;;;;;5.50;0.60;;;12.00;83.00;;;;;;5050676;28;20453;-83
2022/03/30 08:39:48;;;;;;;0.90;0.90;;;12.00;84.20;;;;;;5049303;28;20480;-86
2022/03/30 08:42:16;;;;;;;0.50;0.50;;;12.30;85.60;;;;;;5030851;28;20441;-86
2022/03/30 08:44:46;;;;;;;0.40;0.30;;;12.60;84.60;;;;;;5049144;28;20468;-84
2022/03/30 08:47:15;;;;;;;0.50;0.40;;;12.80;83.60;;;;;;5049965;28;20958;-84
2022/03/30 08:49:45;;;;;;;0.70;0.70;;;12.90;83.40;;;;;;5052799;28;21049;-83
2022/03/30 08:52:12;;;;;;;0.60;0.60;;;13.10;83.60;;;;;;5041033;28;20457;-83
2022/03/30 08:54:44;;;;;;;0.80;0.37;;;13.30;82.80;;;;;;5042976;28;20522;-85
2022/03/30 08:57:11;;;;;;;1.70;0.83;;;13.00;83.40;;;;;;5049889;28;20532;-85
2022/03/30 08:59:39;;;;;;;0.53;0.53;;;13.00;83.10;;;;;;5050175;28;20789;-85
2022/03/30 09:02:08;;;;;;;0.50;0.50;;;13.00;82.30;;;;;;5049139;28;20479;-86
2022/03/30 09:04:38;;;;;;;0.67;0.67;;;13.10;82.70;;;;;;5032682;28;20539;-84
2022/03/30 09:07:05;;;;;;;1.80;0.80;;;13.20;82.50;;;;;;5030630;28;20932;-85
2022/03/30 09:09:35;;;;;;;0.30;0.20;;;13.10;84.60;;;;;;5064785;28;21000;-84
2022/03/30 09:12:07;;;;;;;3.10;1.00;;;13.10;82.30;;;;;;5052373;28;20491;-87
2022/03/30 09:14:37;;;;;;;0.60;0.60;;;13.60;83.10;;;;;;5049400;28;20456;-85
2022/03/30 09:17:06;;;;;;;0.30;0.30;;;13.90;82.40;;;;;;5040432;28;20463;-85
2022/03/30 09:19:36;;;;;;;0.67;0.63;;;13.90;82.20;;;;;;5049526;28;20484;-86
2022/03/30 09:22:06;;;;;;;2.00;1.80;;;14.00;80.50;;;;;;5054438;28;20514;-85
2022/03/30 09:24:35;;;;;;;1.80;1.23;;;14.00;79.10;;;;;;5054300;28;20503;-83
2022/03/30 09:27:03;;;;;;;0.87;0.40;;;13.60;79.00;;;;;;5036656;28;20456;-86
2022/03/30 09:29:33;;;;;;;0.40;0.40;;;13.90;79.20;;;;;;5050354;28;20943;-84
2022/03/30 09:32:03;;;;;;;0.57;0.40;;;14.00;77.80;;;;;;5060610;28;20455;-83
2022/03/30 09:34:34;;;;;;;0.70;0.70;;;14.10;77.40;;;;;;5036753;28;20523;-84
2022/03/30 09:37:01;;;;;;;1.07;0.63;;;14.10;76.60;;;;;;5032004;28;20543;-87
2022/03/30 09:39:34;;;;;;;0.83;0.83;;;14.10;76.10;;;;;;5029964;28;20438;-83
2022/03/30 09:42:04;;;;;;;1.73;1.40;;;14.10;76.10;;;;;;5029750;28;20465;-83
2022/03/30 09:44:44;;;;;;;1.00;1.00;;;14.20;77.20;;;;;;5030771;28;20442;-83
2022/03/30 09:47:11;;;;;;;0.43;0.37;;;14.10;78.60;;;;;;5037791;28;20461;-84
2022/03/30 09:49:40;;;;;;;1.63;1.53;;;13.90;80.40;;;;;;5032057;28;20489;-83
2022/03/30 09:52:18;;;;;;;0.40;0.40;;;14.20;78.70;;;;;;5045964;28;20941;-85
2022/03/30 09:54:49;;;;;;;0.30;0.20;;;14.00;77.50;;;;;;5048601;28;20462;-84
2022/03/30 09:57:19;;;;;;;0.43;0.40;;;13.90;80.00;;;;;;5052991;28;20491;-84
2022/03/30 10:00:07;;;;;;;1.17;1.17;;;13.70;77.90;;;;;;5061466;28;20484;-84
2022/03/30 10:02:36;;;;;;;0.40;0.20;;;13.90;78.00;;;;;;5068063;28;20432;-84
2022/03/30 10:05:05;;;;;;;0.30;0.20;;;14.00;77.80;;;;;;5072953;28;20449;-85
2022/03/30 10:07:32;;;;;;;0.90;0.90;;;14.00;79.60;;;;;;5040178;28;20898;-83
2022/03/30 10:10:02;;;;;;;0.53;0.53;;;14.00;79.70;;;;;;5056045;28;20883;-85
2022/03/30 10:12:29;;;;;;;0.40;0.40;;;14.00;78.10;;;;;;5065078;28;20508;-83
2022/03/30 10:14:57;;;;;;;1.23;0.50;;;13.90;77.30;;;;;;5064192;28;20517;-84
2022/03/30 10:17:26;;;;;;;1.30;1.30;;;14.10;78.10;;;;;;5043197;28;20459;-86
2022/03/30 10:19:56;;;;;;;0.83;0.83;;;14.20;77.10;;;;;;5057481;28;20479;-86
2022/03/30 10:23:08;;;;;;;0.57;0.57;;;14.60;76.90;;;;;;5034837;28;20447;-85
2022/03/30 10:25:52;;;;;;;2.93;0.93;;;14.70;75.90;;;;;;4982583;28;20817;-85
2022/03/30 10:28:23;;;;;;;0.63;0.60;;;14.50;75.70;;;;;;5041665;28;20470;-86
2022/03/30 10:30:53;;;;;;;0.40;0.33;;;14.50;74.90;;;;;;5063740;28;20482;-87
2022/03/30 10:33:31;;;;;;;0.73;0.40;;;14.60;74.80;;;;;;5059367;28;20489;-85
2022/03/30 10:36:00;;;;;;;0.40;0.37;;;14.50;76.30;;;;;;5050674;28;20932;-84
2022/03/30 10:38:27;;;;;;;1.60;1.50;;;14.30;76.90;;;;;;5054441;28;20459;-84
2022/03/30 10:41:10;;;;;;;0.83;0.67;;;14.20;75.70;;;;;;5068388;28;20469;-83
2022/03/30 10:43:37;;;;;;;0.40;0.40;;;14.20;76.70;;;;;;5062199;28;21010;-85
2022/03/30 10:46:04;;;;;;;1.23;0.33;;;14.30;75.90;;;;;;5062725;28;20448;-86
2022/03/30 10:48:38;;;;;;;0.70;0.70;;;14.50;76.40;;;;;;5054177;28;20451;-87
2022/03/30 10:51:19;;;;;;;3.60;0.50;;;14.80;76.60;;;;;;5060833;28;20483;-84
2022/03/30 10:53:50;;;;;;;0.40;0.40;;;14.80;75.50;;;;;;5066701;28;20499;-85
2022/03/30 10:56:32;;;;;;;0.50;0.37;;;14.80;74.00;;;;;;5059683;28;20466;-85
2022/03/30 10:59:14;;;;;;;0.40;0.30;;;15.10;74.20;;;;;;5058277;28;20450;-84
2022/03/30 11:01:41;;;;;;;2.60;2.30;;;15.00;75.00;;;;;;5052147;28;20458;-86
2022/03/30 11:04:18;;;;;;;0.50;0.50;;;15.10;75.60;;;;;;5058930;28;20536;-85
2022/03/30 11:06:47;;;;;;;0.60;0.60;;;15.50;75.10;;;;;;5034480;28;20997;-84
2022/03/30 11:09:23;;;;;;;2.00;0.87;;;15.30;72.50;;;;;;5038606;28;20496;-86
2022/03/30 11:11:59;;;;;;;0.50;0.50;;;15.30;72.80;;;;;;5033109;28;20612;-86
2022/03/30 11:14:29;;;;;;;1.57;1.47;;;15.50;74.40;;;;;;5037766;28;20456;-85
2022/03/30 11:16:57;;;;;;;0.50;0.40;;;15.30;73.10;;;;;;5031754;28;20465;-83
2022/03/30 11:19:29;;;;;;;0.60;0.33;;;15.10;73.00;;;;;;5032196;28;20891;-84
2022/03/30 11:22:11;;;;;;;0.70;0.60;;;15.20;74.90;;;;;;5048853;28;20469;-85
2022/03/30 11:24:39;;;;;;;0.83;0.30;;;15.10;73.80;;;;;;5042037;28;20994;-86
2022/03/30 11:27:23;;;;;;;1.43;0.50;;;15.30;73.60;;;;;;5037571;28;20471;-84
2022/03/30 11:30:10;;;;;;;0.40;0.40;;;15.50;72.50;;;;;;5041226;28;20474;-85
2022/03/30 11:32:40;;;;;;;0.57;0.40;;;15.80;72.10;;;;;;5052597;28;20449;-84
2022/03/30 11:35:10;;;;;;;1.00;0.90;;;15.80;71.70;;;;;;5042983;28;20519;-83
2022/03/30 11:37:39;;;;;;;2.40;1.40;;;16.00;71.90;;;;;;5043036;28;20461;-83
2022/03/30 11:40:08;;;;;;;6.70;2.20;;;16.10;70.80;;;;;;5039823;28;20634;-83
2022/03/30 11:42:37;;;;;;;0.40;0.30;;;16.10;69.10;;;;;;5039411;28;20457;-83
2022/03/30 11:45:15;;;;;;;1.33;0.50;;;16.20;72.60;;;;;;5049075;28;20458;-84
2022/03/30 11:47:44;;;;;;;9.17;0.70;;;16.20;70.10;;;;;;5049807;28;20460;-86
2022/03/30 11:50:12;;;;;;;1.70;0.70;;;16.20;68.50;;;;;;5049231;28;21045;-84
2022/03/30 11:52:40;;;;;;;0.83;0.80;;;16.30;71.20;;;;;;5050935;28;20442;-85
2022/03/30 11:55:08;;;;;;;1.07;0.63;;;16.60;72.40;;;;;;5044039;28;20473;-83
2022/03/30 11:57:41;;;;;;;1.37;1.37;;;16.60;70.40;;;;;;5036268;28;20458;-84
2022/03/30 12:00:11;;;;;;;3.80;0.50;;;16.30;66.90;;;;;;5044930;28;20471;-86
2022/03/30 12:02:38;;;;;;;0.73;0.73;;;16.30;70.00;;;;;;5039261;28;20468;-83
2022/03/30 12:05:07;;;;;;;0.70;0.70;;;16.50;67.00;;;;;;5050749;28;20537;-84
2022/03/30 12:07:36;;;;;;;1.10;1.10;;;16.30;68.30;;;;;;5052628;28;20457;-84
2022/03/30 12:10:05;;;;;;;1.50;0.60;;;16.60;67.70;;;;;;5053873;28;20476;-83
2022/03/30 12:12:36;;;;;;;2.20;2.00;;;16.40;66.40;;;;;;5031545;28;20528;-86
2022/03/30 12:15:07;;;;;;;0.70;0.50;;;16.60;66.40;;;;;;5049065;28;20866;-83
2022/03/30 12:17:35;;;;;;;0.43;0.43;;;16.70;66.40;;;;;;5045570;28;20462;-85
2022/03/30 12:20:05;;;;;;;0.97;0.97;;;16.90;66.30;;;;;;5050512;28;20484;-85
2022/03/30 12:22:33;;;;;;;1.03;0.40;;;17.00;67.50;;;;;;5047082;28;20511;-85
2022/03/30 12:25:00;;;;;;;1.00;1.00;;;16.80;67.00;;;;;;5050188;28;20544;-84
2022/03/30 12:27:27;;;;;;;0.47;0.40;;;16.80;64.40;;;;;;5049444;28;20457;-86
2022/03/30 12:29:58;;;;;;;0.97;0.70;;;16.80;62.30;;;;;;5052783;28;20489;-84
2022/03/30 12:32:27;;;;;;;0.70;0.70;;;16.90;67.30;;;;;;5055474;28;20461;-84
2022/03/30 12:35:07;;;;;;;0.40;0.37;;;17.10;62.80;;;;;;5052960;28;20499;-84
2022/03/30 12:37:34;;;;;;;0.50;0.50;;;17.10;62.00;;;;;;5049569;28;20478;-85
2022/03/30 12:40:10;;;;;;;0.37;0.30;;;17.30;63.10;;;;;;5064084;28;20482;-84
2022/03/30 12:42:38;;;;;;;1.40;0.60;;;17.30;60.50;;;;;;5060092;28;20457;-83
2022/03/30 12:45:10;;;;;;;0.77;0.70;;;17.20;60.20;;;;;;5064891;28;20506;-86
2022/03/30 12:47:40;;;;;;;0.60;0.60;;;17.10;60.40;;;;;;5060080;28;20471;-82
2022/03/30 12:50:10;;;;;;;3.17;0.70;;;17.10;61.90;;;;;;5065538;28;20486;-84
2022/03/30 12:52:38;;;;;;;0.50;0.47;;;17.40;62.00;;;;;;5057517;28;20459;-86
2022/03/30 12:55:17;;;;;;;1.23;0.93;;;17.60;60.70;;;;;;5048589;28;20853;-82
2022/03/30 12:57:56;;;;;;;1.27;1.27;;;17.50;60.90;;;;;;5039392;28;20454;-84
2022/03/30 13:00:26;;;;;;;2.30;1.03;;;17.30;59.90;;;;;;5048924;28;20443;-83
2022/03/30 13:03:06;;;;;;;0.87;0.87;;;17.20;59.90;;;;;;5065805;28;20459;-85
2022/03/30 13:05:34;;;;;;;1.80;1.70;;;17.70;59.60;;;;;;5049289;28;21007;-84
2022/03/30 13:08:08;;;;;;;1.03;0.60;;;17.80;58.90;;;;;;5050578;28;20459;-85
2022/03/30 13:10:48;;;;;;;4.43;0.70;;;18.00;58.60;;;;;;5050343;28;20487;-83